sensor_id;sensor_type;location;lat;lon;timestamp;pressure;altitude;pressure_sealevel;temperature;humidity
48926;BME280;39838;59.938;30.642;2023-06-04T00:02:25;100491.16;;;9.05;62.28
48926;BME280;39838;59.938;30.642;2023-06-04T00:04:52;100481.66;;;9.05;62.61
48926;BME280;39838;59.938;30.642;2023-06-04T00:07:20;100480.81;;;9.05;62.20
48926;BME280;39838;59.938;30.642;2023-06-04T00:09:47;100478.22;;;9.06;62.10
48926;BME280;39838;59.938;30.642;2023-06-04T00:12:15;100458.31;;;8.94;62.46
48926;BME280;39838;59.938;30.642;2023-06-04T00:14:42;100476.50;;;9.05;61.85
48926;BME280;39838;59.938;30.642;2023-06-04T00:17:10;100476.47;;;9.02;62.18
48926;BME280;39838;59.938;30.642;2023-06-04T00:19:39;100474.72;;;8.95;62.31
48926;BME280;39838;59.938;30.642;2023-06-04T00:22:07;100477.25;;;8.89;61.54
48926;BME280;39838;59.938;30.642;2023-06-04T00:24:38;100475.50;;;8.83;61.75
48926;BME280;39838;59.938;30.642;2023-06-04T00:27:07;100475.47;;;8.80;61.85
48926;BME280;39838;59.938;30.642;2023-06-04T00:29:34;100475.44;;;8.75;61.74
48926;BME280;39838;59.938;30.642;2023-06-04T00:32:01;100474.53;;;8.72;61.77
48926;BME280;39838;59.938;30.642;2023-06-04T00:34:28;100475.41;;;8.71;61.90
48926;BME280;39838;59.938;30.642;2023-06-04T00:36:55;100469.34;;;8.67;62.12
48926;BME280;39838;59.938;30.642;2023-06-04T00:39:23;100471.91;;;8.66;62.00
48926;BME280;39838;59.938;30.642;2023-06-04T00:41:51;100470.19;;;8.65;61.87
48926;BME280;39838;59.938;30.642;2023-06-04T00:44:18;100475.34;;;8.63;61.97
48926;BME280;39838;59.938;30.642;2023-06-04T00:46:47;100464.09;;;8.60;62.10
48926;BME280;39838;59.938;30.642;2023-06-04T00:49:15;100465.81;;;8.56;62.73
48926;BME280;39838;59.938;30.642;2023-06-04T00:51:42;100465.75;;;8.47;62.45
48926;BME280;39838;59.938;30.642;2023-06-04T00:54:10;100463.16;;;8.47;62.48
48926;BME280;39838;59.938;30.642;2023-06-04T00:56:38;100464.84;;;8.46;62.33
48926;BME280;39838;59.938;30.642;2023-06-04T00:59:08;100463.97;;;8.44;62.87
48926;BME280;39838;59.938;30.642;2023-06-04T01:01:40;100459.66;;;8.43;62.86
48926;BME280;39838;59.938;30.642;2023-06-04T01:04:15;100457.06;;;8.40;62.68
48926;BME280;39838;59.938;30.642;2023-06-04T01:06:45;100443.22;;;8.37;62.62
48926;BME280;39838;59.938;30.642;2023-06-04T01:09:15;100448.44;;;8.41;62.74
48926;BME280;39838;59.938;30.642;2023-06-04T01:11:42;100454.47;;;8.40;62.78
48926;BME280;39838;59.938;30.642;2023-06-04T01:14:11;100446.66;;;8.39;62.71
48926;BME280;39838;59.938;30.642;2023-06-04T01:16:41;100445.78;;;8.35;62.57
48926;BME280;39838;59.938;30.642;2023-06-04T01:19:19;100443.22;;;8.37;62.47
48926;BME280;39838;59.938;30.642;2023-06-04T01:21:52;100444.91;;;8.35;62.48
48926;BME280;39838;59.938;30.642;2023-06-04T01:24:21;100402.41;;;8.10;62.77
48926;BME280;39838;59.938;30.642;2023-06-04T01:26:52;100449.31;;;8.43;62.54
48926;BME280;39838;59.938;30.642;2023-06-04T01:29:23;100448.44;;;8.46;62.79
48926;BME280;39838;59.938;30.642;2023-06-04T01:31:55;100452.81;;;8.53;62.24
48926;BME280;39838;59.938;30.642;2023-06-04T01:34:23;100452.00;;;8.57;62.30
48926;BME280;39838;59.938;30.642;2023-06-04T01:36:50;100441.63;;;8.54;62.71
48926;BME280;39838;59.938;30.642;2023-06-04T01:39:17;100449.41;;;8.54;62.58
48926;BME280;39838;59.938;30.642;2023-06-04T01:41:45;100449.41;;;8.57;63.21
48926;BME280;39838;59.938;30.642;2023-06-04T01:44:12;100442.50;;;8.56;62.82
48926;BME280;39838;59.938;30.642;2023-06-04T01:46:40;100449.41;;;8.57;62.48
48926;BME280;39838;59.938;30.642;2023-06-04T01:49:07;100440.78;;;8.60;62.33
48926;BME280;39838;59.938;30.642;2023-06-04T01:51:34;100441.66;;;8.59;62.80
48926;BME280;39838;59.938;30.642;2023-06-04T01:54:02;100452.88;;;8.59;62.67
48926;BME280;39838;59.938;30.642;2023-06-04T01:56:29;100451.19;;;8.64;62.37
48926;BME280;39838;59.938;30.642;2023-06-04T01:58:56;100446.03;;;8.69;62.65
48926;BME280;39838;59.938;30.642;2023-06-04T02:01:24;100445.19;;;8.68;62.87
48926;BME280;39838;59.938;30.642;2023-06-04T02:03:52;100440.81;;;8.64;62.82
48926;BME280;39838;59.938;30.642;2023-06-04T02:06:19;100445.13;;;8.62;62.52
48926;BME280;39838;59.938;30.642;2023-06-04T02:08:46;100446.88;;;8.63;63.15
48926;BME280;39838;59.938;30.642;2023-06-04T02:11:13;100452.06;;;8.66;62.64
48926;BME280;39838;59.938;30.642;2023-06-04T02:13:41;100436.50;;;8.60;63.38
48926;BME280;39838;59.938;30.642;2023-06-04T02:16:08;100439.09;;;8.65;64.07
48926;BME280;39838;59.938;30.642;2023-06-04T02:18:36;100446.88;;;8.65;64.43
48926;BME280;39838;59.938;30.642;2023-06-04T02:21:04;100466.72;;;8.61;64.82
48926;BME280;39838;59.938;30.642;2023-06-04T02:23:32;100466.72;;;8.63;65.15
48926;BME280;39838;59.938;30.642;2023-06-04T02:25:59;100459.81;;;8.66;65.93
48926;BME280;39838;59.938;30.642;2023-06-04T02:28:26;100467.59;;;8.66;66.52
48926;BME280;39838;59.938;30.642;2023-06-04T02:30:53;100469.31;;;8.64;66.80
48926;BME280;39838;59.938;30.642;2023-06-04T02:33:20;100472.75;;;8.63;68.42
48926;BME280;39838;59.938;30.642;2023-06-04T02:35:54;100468.41;;;8.58;68.74
48926;BME280;39838;59.938;30.642;2023-06-04T02:38:23;100477.84;;;8.50;69.56
48926;BME280;39838;59.938;30.642;2023-06-04T02:40:50;100474.28;;;8.40;70.79
48926;BME280;39838;59.938;30.642;2023-06-04T02:43:17;100469.09;;;8.37;71.90
48926;BME280;39838;59.938;30.642;2023-06-04T02:45:44;100460.38;;;8.27;72.84
48926;BME280;39838;59.938;30.642;2023-06-04T02:48:11;100462.84;;;8.18;74.31
48926;BME280;39838;59.938;30.642;2023-06-04T02:50:39;100470.56;;;8.10;75.32
48926;BME280;39838;59.938;30.642;2023-06-04T02:53:09;100461.00;;;8.03;76.26
48926;BME280;39838;59.938;30.642;2023-06-04T02:55:36;100467.88;;;8.01;76.31
48926;BME280;39838;59.938;30.642;2023-06-04T02:58:03;100463.56;;;8.00;76.97
48926;BME280;39838;59.938;30.642;2023-06-04T03:00:30;100461.00;;;8.02;76.71
48926;BME280;39838;59.938;30.642;2023-06-04T03:02:58;100458.41;;;8.03;77.49
48926;BME280;39838;59.938;30.642;2023-06-04T03:05:27;100461.88;;;8.05;77.49
48926;BME280;39838;59.938;30.642;2023-06-04T03:07:56;100456.72;;;8.07;77.69
48926;BME280;39838;59.938;30.642;2023-06-04T03:10:26;100452.41;;;8.07;77.29
48926;BME280;39838;59.938;30.642;2023-06-04T03:12:53;100454.97;;;8.03;77.68
48926;BME280;39838;59.938;30.642;2023-06-04T03:15:21;100459.28;;;8.04;78.24
48926;BME280;39838;59.938;30.642;2023-06-04T03:17:48;100449.78;;;8.04;78.37
48926;BME280;39838;59.938;30.642;2023-06-04T03:20:17;100449.78;;;8.04;78.24
48926;BME280;39838;59.938;30.642;2023-06-04T03:22:44;100447.19;;;8.03;78.25
48926;BME280;39838;59.938;30.642;2023-06-04T03:25:11;100440.28;;;8.02;78.10
48926;BME280;39838;59.938;30.642;2023-06-04T03:27:40;100440.28;;;8.00;78.28
48926;BME280;39838;59.938;30.642;2023-06-04T03:30:08;100435.06;;;7.97;78.38
48926;BME280;39838;59.938;30.642;2023-06-04T03:32:35;100442.06;;;8.07;78.21
48926;BME280;39838;59.938;30.642;2023-06-04T03:35:03;100442.94;;;8.09;78.77
48926;BME280;39838;59.938;30.642;2023-06-04T03:37:31;100432.59;;;8.09;78.40
48926;BME280;39838;59.938;30.642;2023-06-04T03:39:58;100430.88;;;8.11;78.13
48926;BME280;39838;59.938;30.642;2023-06-04T03:42:26;100431.72;;;8.10;78.19
48926;BME280;39838;59.938;30.642;2023-06-04T03:44:54;100435.16;;;8.08;78.18
48926;BME280;39838;59.938;30.642;2023-06-04T03:47:23;100442.13;;;8.15;78.29
48926;BME280;39838;59.938;30.642;2023-06-04T03:49:50;100435.25;;;8.17;77.89
48926;BME280;39838;59.938;30.642;2023-06-04T03:52:17;100435.28;;;8.21;77.49
48926;BME280;39838;59.938;30.642;2023-06-04T03:54:45;100428.44;;;8.30;77.86
48926;BME280;39838;59.938;30.642;2023-06-04T03:57:12;100435.44;;;8.40;77.51
48926;BME280;39838;59.938;30.642;2023-06-04T03:59:39;100442.44;;;8.48;77.26
48926;BME280;39838;59.938;30.642;2023-06-04T04:02:07;100433.88;;;8.59;77.15
48926;BME280;39838;59.938;30.642;2023-06-04T04:04:34;100429.59;;;8.65;77.24
48926;BME280;39838;59.938;30.642;2023-06-04T04:07:02;100424.47;;;8.68;77.06
48926;BME280;39838;59.938;30.642;2023-06-04T04:09:29;100434.88;;;8.79;76.25
48926;BME280;39838;59.938;30.642;2023-06-04T04:11:56;100434.91;;;8.81;76.79
48926;BME280;39838;59.938;30.642;2023-06-04T04:14:23;100426.28;;;8.83;76.25
48926;BME280;39838;59.938;30.642;2023-06-04T04:16:50;100433.22;;;8.90;75.81
48926;BME280;39838;59.938;30.642;2023-06-04T04:19:19;100433.28;;;9.02;75.98
48926;BME280;39838;59.938;30.642;2023-06-04T04:21:46;100431.63;;;9.17;74.99
48926;BME280;39838;59.938;30.642;2023-06-04T04:24:22;100422.16;;;9.22;75.17
48926;BME280;39838;59.938;30.642;2023-06-04T04:26:49;100419.59;;;9.29;75.39
48926;BME280;39838;59.938;30.642;2023-06-04T04:29:19;100424.81;;;9.39;74.15
48926;BME280;39838;59.938;30.642;2023-06-04T04:31:48;100419.66;;;9.42;74.63
48926;BME280;39838;59.938;30.642;2023-06-04T04:34:16;100418.75;;;9.41;73.81
48926;BME280;39838;59.938;30.642;2023-06-04T04:36:47;100421.38;;;9.43;73.68
48926;BME280;39838;59.938;30.642;2023-06-04T04:39:18;100422.22;;;9.37;73.75
48926;BME280;39838;59.938;30.642;2023-06-04T04:41:46;100427.38;;;9.29;73.42
48926;BME280;39838;59.938;30.642;2023-06-04T04:44:13;100429.97;;;9.33;73.88
48926;BME280;39838;59.938;30.642;2023-06-04T04:46:40;100423.13;;;9.48;73.90
48926;BME280;39838;59.938;30.642;2023-06-04T04:49:07;100419.69;;;9.66;73.40
48926;BME280;39838;59.938;30.642;2023-06-04T04:51:35;100424.91;;;9.69;73.12
48926;BME280;39838;59.938;30.642;2023-06-04T04:54:03;100417.97;;;9.65;73.13
48926;BME280;39838;59.938;30.642;2023-06-04T04:56:33;100417.94;;;9.59;73.15
48926;BME280;39838;59.938;30.642;2023-06-04T04:59:01;100415.34;;;9.57;73.29
48926;BME280;39838;59.938;30.642;2023-06-04T05:01:28;100413.63;;;9.58;73.66
48926;BME280;39838;59.938;30.642;2023-06-04T05:03:55;100411.91;;;9.57;73.26
48926;BME280;39838;59.938;30.642;2023-06-04T05:06:22;100405.84;;;9.49;73.64
48926;BME280;39838;59.938;30.642;2023-06-04T05:08:50;100405.84;;;9.49;73.02
48926;BME280;39838;59.938;30.642;2023-06-04T05:11:18;100406.66;;;9.37;74.00
48926;BME280;39838;59.938;30.642;2023-06-04T05:13:47;100398.88;;;9.36;74.33
48926;BME280;39838;59.938;30.642;2023-06-04T05:16:14;100411.00;;;9.52;74.24
48926;BME280;39838;59.938;30.642;2023-06-04T05:18:41;100404.16;;;9.77;74.14
48926;BME280;39838;59.938;30.642;2023-06-04T05:21:10;100407.63;;;10.08;72.81
48926;BME280;39838;59.938;30.642;2023-06-04T05:23:38;100406.81;;;10.23;73.21
48926;BME280;39838;59.938;30.642;2023-06-04T05:26:05;100407.63;;;10.22;72.94
48926;BME280;39838;59.938;30.642;2023-06-04T05:28:33;100408.50;;;10.13;72.53
48926;BME280;39838;59.938;30.642;2023-06-04T05:31:03;100404.19;;;10.00;72.95
48926;BME280;39838;59.938;30.642;2023-06-04T05:33:31;100410.22;;;9.87;73.16
48926;BME280;39838;59.938;30.642;2023-06-04T05:35:58;100403.31;;;9.76;72.89
48926;BME280;39838;59.938;30.642;2023-06-04T05:38:25;100402.41;;;9.67;73.63
48926;BME280;39838;59.938;30.642;2023-06-04T05:40:53;100406.72;;;9.60;74.34
48926;BME280;39838;59.938;30.642;2023-06-04T05:43:21;100407.59;;;9.56;74.16
48926;BME280;39838;59.938;30.642;2023-06-04T05:45:49;100409.25;;;9.48;74.71
48926;BME280;39838;59.938;30.642;2023-06-04T05:48:17;100408.41;;;9.46;75.30
48926;BME280;39838;59.938;30.642;2023-06-04T05:50:44;100404.94;;;9.38;75.89
48926;BME280;39838;59.938;30.642;2023-06-04T05:53:16;100391.94;;;9.35;76.07
48926;BME280;39838;59.938;30.642;2023-06-04T05:55:43;100394.53;;;9.30;76.20
48926;BME280;39838;59.938;30.642;2023-06-04T05:58:10;100385.03;;;9.29;76.73
48926;BME280;39838;59.938;30.642;2023-06-04T06:00:37;100380.69;;;9.34;76.83
48926;BME280;39838;59.938;30.642;2023-06-04T06:03:06;100385.03;;;9.41;76.48
48926;BME280;39838;59.938;30.642;2023-06-04T06:05:33;100392.00;;;9.53;76.99
48926;BME280;39838;59.938;30.642;2023-06-04T06:08:00;100394.63;;;9.67;76.37
48926;BME280;39838;59.938;30.642;2023-06-04T06:10:28;100403.28;;;9.73;75.87
48926;BME280;39838;59.938;30.642;2023-06-04T06:12:55;100392.06;;;9.76;76.58
48926;BME280;39838;59.938;30.642;2023-06-04T06:15:22;100403.28;;;9.78;75.76
48926;BME280;39838;59.938;30.642;2023-06-04T06:17:49;100397.25;;;9.77;76.45
48926;BME280;39838;59.938;30.642;2023-06-04T06:20:18;100396.38;;;9.77;76.37
48926;BME280;39838;59.938;30.642;2023-06-04T06:22:47;100402.44;;;9.77;77.19
48926;BME280;39838;59.938;30.642;2023-06-04T06:25:15;100403.28;;;9.75;77.44
48926;BME280;39838;59.938;30.642;2023-06-04T06:27:42;100395.50;;;9.72;77.02
48926;BME280;39838;59.938;30.642;2023-06-04T06:30:10;100396.38;;;9.77;77.34
48926;BME280;39838;59.938;30.642;2023-06-04T06:32:37;100393.78;;;9.88;77.69
48926;BME280;39838;59.938;30.642;2023-06-04T06:35:05;100393.78;;;9.94;76.95
48926;BME280;39838;59.938;30.642;2023-06-04T06:37:34;100397.25;;;9.94;76.92
48926;BME280;39838;59.938;30.642;2023-06-04T06:40:02;100399.88;;;9.96;77.55
48926;BME280;39838;59.938;30.642;2023-06-04T06:42:32;100407.66;;;9.90;76.84
48926;BME280;39838;59.938;30.642;2023-06-04T06:44:59;100403.31;;;9.82;78.02
48926;BME280;39838;59.938;30.642;2023-06-04T06:47:26;100411.09;;;9.76;77.45
48926;BME280;39838;59.938;30.642;2023-06-04T06:49:54;100405.88;;;9.72;77.51
48926;BME280;39838;59.938;30.642;2023-06-04T06:52:21;100401.53;;;9.66;78.31
48926;BME280;39838;59.938;30.642;2023-06-04T06:54:49;100411.03;;;9.60;78.82
48926;BME280;39838;59.938;30.642;2023-06-04T06:57:18;100412.75;;;9.53;79.70
48926;BME280;39838;59.938;30.642;2023-06-04T06:59:45;100408.44;;;9.49;78.61
48926;BME280;39838;59.938;30.642;2023-06-04T07:02:12;100416.19;;;9.47;78.89
48926;BME280;39838;59.938;30.642;2023-06-04T07:04:39;100417.94;;;9.48;79.04
48926;BME280;39838;59.938;30.642;2023-06-04T07:07:06;100417.94;;;9.53;79.39
48926;BME280;39838;59.938;30.642;2023-06-04T07:09:34;100419.66;;;9.49;78.99
48926;BME280;39838;59.938;30.642;2023-06-04T07:12:02;100412.69;;;9.41;79.26
48926;BME280;39838;59.938;30.642;2023-06-04T07:14:30;100440.34;;;9.33;80.13
48926;BME280;39838;59.938;30.642;2023-06-04T07:16:57;100435.97;;;9.22;80.24
48926;BME280;39838;59.938;30.642;2023-06-04T07:19:24;100415.22;;;9.15;81.00
48926;BME280;39838;59.938;30.642;2023-06-04T07:21:54;100437.66;;;9.13;81.49
48926;BME280;39838;59.938;30.642;2023-06-04T07:24:21;100435.06;;;9.08;81.38
48926;BME280;39838;59.938;30.642;2023-06-04T07:26:48;100434.16;;;9.06;81.53
48926;BME280;39838;59.938;30.642;2023-06-04T07:29:17;100440.25;;;9.08;81.69
48926;BME280;39838;59.938;30.642;2023-06-04T07:31:44;100440.25;;;9.11;82.54
48926;BME280;39838;59.938;30.642;2023-06-04T07:34:12;100433.34;;;9.16;82.75
48926;BME280;39838;59.938;30.642;2023-06-04T07:36:39;100440.28;;;9.17;82.69
48926;BME280;39838;59.938;30.642;2023-06-04T07:39:07;100435.06;;;9.14;83.06
48926;BME280;39838;59.938;30.642;2023-06-04T07:41:34;100432.50;;;9.16;83.62
48926;BME280;39838;59.938;30.642;2023-06-04T07:44:02;100437.72;;;9.23;84.30
48926;BME280;39838;59.938;30.642;2023-06-04T07:46:32;100437.72;;;9.25;83.77
48926;BME280;39838;59.938;30.642;2023-06-04T07:48:59;100444.66;;;9.29;84.16
48926;BME280;39838;59.938;30.642;2023-06-04T07:51:26;100443.78;;;9.30;84.07
48926;BME280;39838;59.938;30.642;2023-06-04T07:53:53;100446.41;;;9.36;83.66
48926;BME280;39838;59.938;30.642;2023-06-04T07:56:21;100444.69;;;9.40;84.19
48926;BME280;39838;59.938;30.642;2023-06-04T07:58:48;100448.16;;;9.45;84.20
48926;BME280;39838;59.938;30.642;2023-06-04T08:01:15;100448.19;;;9.49;83.55
48926;BME280;39838;59.938;30.642;2023-06-04T08:03:44;100449.06;;;9.48;83.08
48926;BME280;39838;59.938;30.642;2023-06-04T08:06:11;100446.44;;;9.47;83.12
48926;BME280;39838;59.938;30.642;2023-06-04T08:08:42;100454.25;;;9.53;84.04
48926;BME280;39838;59.938;30.642;2023-06-04T08:11:11;100449.97;;;9.69;83.40
48926;BME280;39838;59.938;30.642;2023-06-04T08:13:39;100449.16;;;9.99;83.56
48926;BME280;39838;59.938;30.642;2023-06-04T08:16:06;100455.28;;;10.36;83.35
48926;BME280;39838;59.938;30.642;2023-06-04T08:18:50;100449.22;;;10.60;82.92
48926;BME280;39838;59.938;30.642;2023-06-04T08:21:38;100459.59;;;10.81;82.03
48926;BME280;39838;59.938;30.642;2023-06-04T08:24:08;100456.09;;;10.88;81.60
48926;BME280;39838;59.938;30.642;2023-06-04T08:26:55;100459.53;;;11.01;80.84
48926;BME280;39838;59.938;30.642;2023-06-04T08:29:31;100456.03;;;11.20;80.75
48926;BME280;39838;59.938;30.642;2023-06-04T08:32:02;100457.72;;;11.38;79.55
48926;BME280;39838;59.938;30.642;2023-06-04T08:34:45;100451.53;;;11.58;78.84
48926;BME280;39838;59.938;30.642;2023-06-04T08:37:13;100450.56;;;11.86;78.68
48926;BME280;39838;59.938;30.642;2023-06-04T08:39:40;100451.28;;;12.08;78.11
48926;BME280;39838;59.938;30.642;2023-06-04T08:42:11;100446.81;;;12.24;76.75
48926;BME280;39838;59.938;30.642;2023-06-04T08:44:45;100434.41;;;12.53;75.49
48926;BME280;39838;59.938;30.642;2023-06-04T08:47:13;100458.50;;;12.78;75.11
48926;BME280;39838;59.938;30.642;2023-06-04T08:49:45;100454.84;;;12.96;74.78
48926;BME280;39838;59.938;30.642;2023-06-04T08:52:15;100460.91;;;12.98;73.71
48926;BME280;39838;59.938;30.642;2023-06-04T08:54:42;100458.44;;;12.84;71.25
48926;BME280;39838;59.938;30.642;2023-06-04T08:57:11;100445.44;;;12.80;70.74
48926;BME280;39838;59.938;30.642;2023-06-04T08:59:38;100443.59;;;12.91;71.06
48926;BME280;39838;59.938;30.642;2023-06-04T09:02:05;100453.84;;;13.06;71.12
48926;BME280;39838;59.938;30.642;2023-06-04T09:04:34;100453.72;;;13.23;70.34
48926;BME280;39838;59.938;30.642;2023-06-04T09:07:03;100450.13;;;13.32;69.45
48926;BME280;39838;59.938;30.642;2023-06-04T09:09:31;100458.22;;;13.04;68.65
48926;BME280;39838;59.938;30.642;2023-06-04T09:12:01;100448.25;;;12.62;69.83
48926;BME280;39838;59.938;30.642;2023-06-04T09:14:30;100453.53;;;12.54;71.03
48926;BME280;39838;59.938;30.642;2023-06-04T09:16:57;100445.72;;;12.51;71.36
48926;BME280;39838;59.938;30.642;2023-06-04T09:19:25;100444.03;;;12.47;71.42
48926;BME280;39838;59.938;30.642;2023-06-04T09:21:54;100438.78;;;12.50;71.16
48926;BME280;39838;59.938;30.642;2023-06-04T09:24:24;100441.34;;;12.54;70.76
48926;BME280;39838;59.938;30.642;2023-06-04T09:26:52;100459.59;;;12.54;71.54
48926;BME280;39838;59.938;30.642;2023-06-04T09:29:19;100459.53;;;12.59;70.77
48926;BME280;39838;59.938;30.642;2023-06-04T09:31:47;100448.16;;;12.71;70.08
48926;BME280;39838;59.938;30.642;2023-06-04T09:34:27;100451.41;;;12.91;69.24
48926;BME280;39838;59.938;30.642;2023-06-04T09:36:55;100453.00;;;13.04;68.32
48926;BME280;39838;59.938;30.642;2023-06-04T09:39:24;100439.75;;;13.26;68.34
48926;BME280;39838;59.938;30.642;2023-06-04T09:41:57;100436.97;;;13.43;66.42
48926;BME280;39838;59.938;30.642;2023-06-04T09:44:25;100435.97;;;13.51;65.69
48926;BME280;39838;59.938;30.642;2023-06-04T09:46:55;100446.28;;;13.62;65.37
48926;BME280;39838;59.938;30.642;2023-06-04T09:49:23;100435.81;;;13.63;64.55
48926;BME280;39838;59.938;30.642;2023-06-04T09:51:50;100443.69;;;13.59;63.83
48926;BME280;39838;59.938;30.642;2023-06-04T09:54:17;100436.63;;;13.69;64.27
48926;BME280;39838;59.938;30.642;2023-06-04T09:56:46;100441.53;;;13.90;64.28
48926;BME280;39838;59.938;30.642;2023-06-04T09:59:13;100442.91;;;14.14;62.64
48926;BME280;39838;59.938;30.642;2023-06-04T10:01:41;100435.78;;;14.24;60.82
48926;BME280;39838;59.938;30.642;2023-06-04T10:04:10;100443.53;;;14.28;60.17
48926;BME280;39838;59.938;30.642;2023-06-04T10:06:40;100457.47;;;14.29;59.90
48926;BME280;39838;59.938;30.642;2023-06-04T10:09:08;100447.31;;;14.09;59.19
48926;BME280;39838;59.938;30.642;2023-06-04T10:11:39;100405.22;;;13.72;59.71
48926;BME280;39838;59.938;30.642;2023-06-04T10:14:13;100411.16;;;13.84;59.22
48926;BME280;39838;59.938;30.642;2023-06-04T10:16:43;100431.00;;;13.96;58.21
48926;BME280;39838;59.938;30.642;2023-06-04T10:19:12;100438.91;;;13.90;58.73
48926;BME280;39838;59.938;30.642;2023-06-04T10:21:39;100443.19;;;13.94;59.16
48926;BME280;39838;59.938;30.642;2023-06-04T10:24:07;100449.19;;;14.02;58.65
48926;BME280;39838;59.938;30.642;2023-06-04T10:26:34;100442.84;;;14.18;58.00
48926;BME280;39838;59.938;30.642;2023-06-04T10:29:02;100434.06;;;14.23;57.59
48926;BME280;39838;59.938;30.642;2023-06-04T10:31:31;100442.06;;;14.12;57.00
48926;BME280;39838;59.938;30.642;2023-06-04T10:33:59;100442.25;;;14.00;57.47
48926;BME280;39838;59.938;30.642;2023-06-04T10:36:27;100443.94;;;14.04;57.60
48926;BME280;39838;59.938;30.642;2023-06-04T10:38:55;100449.63;;;14.30;58.29
48926;BME280;39838;59.938;30.642;2023-06-04T10:41:23;100457.94;;;14.55;57.00
48926;BME280;39838;59.938;30.642;2023-06-04T10:43:59;100455.94;;;14.69;55.92
48926;BME280;39838;59.938;30.642;2023-06-04T10:46:38;100447.09;;;14.77;55.65
48926;BME280;39838;59.938;30.642;2023-06-04T10:49:08;100429.06;;;14.61;55.71
48926;BME280;39838;59.938;30.642;2023-06-04T10:51:35;100448.88;;;14.74;54.99
48926;BME280;39838;59.938;30.642;2023-06-04T10:54:03;100462.53;;;14.92;54.78
48926;BME280;39838;59.938;30.642;2023-06-04T10:56:32;100450.44;;;14.86;54.36
48926;BME280;39838;59.938;30.642;2023-06-04T10:59:01;100455.75;;;14.80;54.17
48926;BME280;39838;59.938;30.642;2023-06-04T11:01:40;100446.38;;;14.70;54.27
48926;BME280;39838;59.938;30.642;2023-06-04T11:04:18;100452.50;;;14.67;54.34
48926;BME280;39838;59.938;30.642;2023-06-04T11:06:45;100466.41;;;14.71;53.79
48926;BME280;39838;59.938;30.642;2023-06-04T11:09:13;100464.88;;;14.58;51.85
48926;BME280;39838;59.938;30.642;2023-06-04T11:11:42;100466.81;;;14.45;51.88
48926;BME280;39838;59.938;30.642;2023-06-04T11:14:10;100473.00;;;14.39;51.53
48926;BME280;39838;59.938;30.642;2023-06-04T11:16:40;100466.81;;;14.45;51.88
48926;BME280;39838;59.938;30.642;2023-06-04T11:19:07;100471.88;;;14.57;51.98
48926;BME280;39838;59.938;30.642;2023-06-04T11:21:35;100476.09;;;14.63;52.05
48926;BME280;39838;59.938;30.642;2023-06-04T11:24:04;100472.63;;;14.62;51.84
48926;BME280;39838;59.938;30.642;2023-06-04T11:26:31;100476.25;;;14.55;52.54
48926;BME280;39838;59.938;30.642;2023-06-04T11:29:00;100468.56;;;14.46;52.81
48926;BME280;39838;59.938;30.642;2023-06-04T11:31:27;100474.59;;;14.51;52.85
48926;BME280;39838;59.938;30.642;2023-06-04T11:33:56;100477.84;;;14.64;53.00
48926;BME280;39838;59.938;30.642;2023-06-04T11:36:24;100478.63;;;14.70;53.27
48926;BME280;39838;59.938;30.642;2023-06-04T11:38:57;100479.63;;;14.63;52.38
48926;BME280;39838;59.938;30.642;2023-06-04T11:41:26;100485.72;;;14.61;52.75
48926;BME280;39838;59.938;30.642;2023-06-04T11:43:55;100463.22;;;14.52;52.46
48926;BME280;39838;59.938;30.642;2023-06-04T11:46:23;100483.72;;;14.78;52.36
48926;BME280;39838;59.938;30.642;2023-06-04T11:48:50;100482.53;;;14.94;52.61
48926;BME280;39838;59.938;30.642;2023-06-04T11:51:21;100496.38;;;15.01;51.93
48926;BME280;39838;59.938;30.642;2023-06-04T11:53:48;100490.88;;;15.15;51.95
48926;BME280;39838;59.938;30.642;2023-06-04T11:56:16;100487.09;;;15.31;51.44
48926;BME280;39838;59.938;30.642;2023-06-04T11:58:44;100499.16;;;15.37;51.29
48926;BME280;39838;59.938;30.642;2023-06-04T12:01:12;100501.00;;;15.33;51.58
48926;BME280;39838;59.938;30.642;2023-06-04T12:03:41;100501.66;;;15.43;51.60
48926;BME280;39838;59.938;30.642;2023-06-04T12:06:12;100488.66;;;15.40;51.38
48926;BME280;39838;59.938;30.642;2023-06-04T12:08:50;100510.72;;;15.71;51.63
48926;BME280;39838;59.938;30.642;2023-06-04T12:11:28;100509.94;;;16.08;51.34
48926;BME280;39838;59.938;30.642;2023-06-04T12:13:58;100503.09;;;16.40;51.32
48926;BME280;39838;59.938;30.642;2023-06-04T12:16:26;100511.69;;;16.82;51.08
48926;BME280;39838;59.938;30.642;2023-06-04T12:19:05;100505.66;;;17.43;50.16
48926;BME280;39838;59.938;30.642;2023-06-04T12:21:33;100499.81;;;17.94;48.41
48926;BME280;39838;59.938;30.642;2023-06-04T12:24:09;100503.28;;;17.95;47.92
48926;BME280;39838;59.938;30.642;2023-06-04T12:26:37;100500.41;;;18.32;47.63
48926;BME280;39838;59.938;30.642;2023-06-04T12:29:10;100501.75;;;18.72;46.42
48926;BME280;39838;59.938;30.642;2023-06-04T12:31:38;100500.81;;;18.99;46.06
48926;BME280;39838;59.938;30.642;2023-06-04T12:34:05;100497.31;;;18.99;45.38
48926;BME280;39838;59.938;30.642;2023-06-04T12:36:33;100505.69;;;18.85;45.38
48926;BME280;39838;59.938;30.642;2023-06-04T12:39:02;100507.28;;;18.63;45.31
48926;BME280;39838;59.938;30.642;2023-06-04T12:41:31;100508.75;;;18.73;46.03
48926;BME280;39838;59.938;30.642;2023-06-04T12:43:59;100506.19;;;19.21;45.20
48926;BME280;39838;59.938;30.642;2023-06-04T12:46:27;100513.31;;;19.43;44.21
48926;BME280;39838;59.938;30.642;2023-06-04T12:48:54;100511.09;;;19.55;43.80
48926;BME280;39838;59.938;30.642;2023-06-04T12:51:22;100510.94;;;20.29;42.74
48926;BME280;39838;59.938;30.642;2023-06-04T12:53:49;100504.94;;;20.69;41.63